Corpus Christi, Texas
Current Conditions -  °F | °C
As of 7:51 AM on Monday 20 Oct 2014 (Local Time) from KCRP Reporting Station
Scattered Clouds Scattered Clouds  
Wind Chill: 72°   Ceiling: Unl
Heat Index: 72°   Visibility: 7mi
Dew Point: 69°   Wind: 7mph
Humidity: 91%   Direction: 20°NNE
Pressure: 29.96"   Gusts: NA
Location:  27.8°N, 97.4°W
Report Text: KCRP 201251Z 02006KT 7SM FEW025 SCT065 SCT250 22/21 A2996 RMK AO2 SLP144 CB DSNT NE SE-S T02220206 $
Loading
Personal Weather Stations






























Interactive Weather Map
Tropical Storm Tracking
New forecast layout! Learn more

10-Day Weather Forecast

Advertisements
Track Severe Weather on mobile